createdAt,value
2023-01-25T00:00:17.485Z,4.06
2023-01-25T00:01:17.435Z,4.1
2023-01-25T00:02:17.643Z,4.07
2023-01-25T00:03:17.687Z,4.13
2023-01-25T00:04:17.725Z,4.02
2023-01-25T00:05:20.526Z,4.09
2023-01-25T00:06:17.431Z,4.07
2023-01-25T00:07:17.532Z,4.02
2023-01-25T00:08:17.464Z,3.96
2023-01-25T00:09:17.457Z,3.89
2023-01-25T00:10:17.488Z,3.94
2023-01-25T00:11:17.423Z,3.96
2023-01-25T00:12:17.482Z,3.95
2023-01-25T00:13:17.520Z,3.91
2023-01-25T00:14:17.446Z,3.88
2023-01-25T00:15:17.464Z,3.81
2023-01-25T00:16:20.756Z,3.76
2023-01-25T00:17:18.033Z,3.82
2023-01-25T00:18:17.437Z,3.96
2023-01-25T00:19:17.474Z,3.86
2023-01-25T00:20:17.456Z,3.86
2023-01-25T00:21:20.291Z,3.74
2023-01-25T00:22:17.592Z,3.88
2023-01-25T00:23:17.478Z,3.89
2023-01-25T00:24:17.691Z,3.84
2023-01-25T00:25:17.461Z,3.85
2023-01-25T00:26:17.456Z,3.82
2023-01-25T00:27:20.292Z,3.78
2023-01-25T00:28:17.536Z,3.88
2023-01-25T00:29:17.457Z,3.76
2023-01-25T00:30:17.470Z,3.89
2023-01-25T00:31:17.857Z,3.85
2023-01-25T00:32:19.570Z,3.78
2023-01-25T00:33:17.476Z,3.73
2023-01-25T00:34:17.462Z,3.78
2023-01-25T00:35:17.476Z,3.88
2023-01-25T00:36:17.465Z,3.89
2023-01-25T00:37:17.518Z,3.84
2023-01-25T00:38:20.286Z,3.92
2023-01-25T00:39:17.490Z,3.86
2023-01-25T00:40:17.554Z,3.88
2023-01-25T00:41:17.473Z,3.85
2023-01-25T00:42:17.517Z,3.78
2023-01-25T00:43:20.491Z,3.91
2023-01-25T00:44:17.495Z,3.82
2023-01-25T00:45:17.507Z,3.96
2023-01-25T00:46:17.712Z,3.99
2023-01-25T00:47:17.559Z,3.88
2023-01-25T00:48:17.518Z,3.78
2023-01-25T00:49:20.359Z,3.82
2023-01-25T00:50:17.768Z,3.7
2023-01-25T00:51:17.544Z,3.82
2023-01-25T00:52:17.530Z,3.85
2023-01-25T00:53:17.521Z,3.88
2023-01-25T00:54:20.309Z,3.84
2023-01-25T00:55:17.503Z,3.81
2023-01-25T00:56:17.604Z,3.77
2023-01-25T00:57:17.540Z,3.81
2023-01-25T00:58:17.799Z,3.85
2023-01-25T00:59:17.552Z,3.78
2023-01-25T01:00:17.533Z,3.84
2023-01-25T01:01:17.869Z,3.88
2023-01-25T01:02:17.614Z,3.82
2023-01-25T01:03:17.578Z,3.91
2023-01-25T01:04:17.810Z,3.78
2023-01-25T01:05:19.189Z,3.88
2023-01-25T01:06:17.559Z,3.82
2023-01-25T01:07:17.554Z,3.73
2023-01-25T01:08:17.524Z,3.76
2023-01-25T01:09:17.534Z,3.77
2023-01-25T01:10:17.598Z,3.74
2023-01-25T01:11:17.541Z,3.86
2023-01-25T01:12:20.417Z,3.77
2023-01-25T01:13:17.659Z,3.76
2023-01-25T01:14:17.667Z,3.76
2023-01-25T01:15:17.564Z,3.77
2023-01-25T01:16:20.726Z,3.81
2023-01-25T01:17:17.580Z,3.82
2023-01-25T01:18:17.561Z,3.81
2023-01-25T01:19:17.593Z,3.82
2023-01-25T01:20:17.765Z,3.82
2023-01-25T01:21:17.730Z,3.76
2023-01-25T01:22:17.603Z,3.84
2023-01-25T01:23:17.551Z,3.81
2023-01-25T01:24:17.859Z,3.78
2023-01-25T01:25:17.709Z,3.82
2023-01-25T01:26:17.639Z,3.85
2023-01-25T01:27:20.383Z,3.74
2023-01-25T01:28:17.566Z,3.81
2023-01-25T01:29:17.595Z,3.84
2023-01-25T01:30:17.552Z,3.85
2023-01-25T01:31:17.805Z,3.76
2023-01-25T01:32:18.365Z,3.76
2023-01-25T01:33:17.582Z,3.64
2023-01-25T01:34:17.562Z,3.71
2023-01-25T01:35:17.575Z,3.61
2023-01-25T01:36:17.679Z,3.58
2023-01-25T01:37:17.632Z,3.76
2023-01-25T01:38:20.699Z,3.71
2023-01-25T01:39:17.643Z,3.61
2023-01-25T01:40:17.583Z,3.61
2023-01-25T01:41:17.806Z,3.63
2023-01-25T01:42:17.605Z,3.71
2023-01-25T01:43:17.578Z,3.74
2023-01-25T01:44:17.619Z,3.66
2023-01-25T01:45:17.614Z,3.71
2023-01-25T01:46:17.941Z,3.81
2023-01-25T01:47:17.659Z,3.68
2023-01-25T01:48:17.658Z,3.73
2023-01-25T01:49:20.762Z,3.74
2023-01-25T01:50:17.655Z,3.76
2023-01-25T01:51:19.536Z,3.73
2023-01-25T01:52:17.646Z,3.78
2023-01-25T01:53:17.637Z,3.76
2023-01-25T01:54:17.654Z,3.71
2023-01-25T01:55:17.571Z,3.78
2023-01-25T01:56:17.676Z,3.74
2023-01-25T01:57:17.608Z,3.76
2023-01-25T01:58:17.632Z,3.74
2023-01-25T01:59:17.597Z,3.74
2023-01-25T02:00:20.440Z,3.74
2023-01-25T02:01:17.741Z,3.66
2023-01-25T02:02:17.725Z,3.94
2023-01-25T02:03:17.609Z,3.76
2023-01-25T02:04:17.632Z,3.82
2023-01-25T02:05:17.609Z,3.78
2023-01-25T02:06:17.606Z,3.77
2023-01-25T02:07:17.707Z,3.84
2023-01-25T02:08:17.652Z,3.76
2023-01-25T02:09:17.668Z,3.71
2023-01-25T02:10:17.631Z,3.84
2023-01-25T02:11:17.600Z,3.89
2023-01-25T02:12:17.626Z,3.86
2023-01-25T02:13:17.679Z,3.76
2023-01-25T02:14:17.634Z,3.78
2023-01-25T02:15:17.644Z,3.82
2023-01-25T02:16:20.896Z,3.85
2023-01-25T02:17:17.626Z,3.77
2023-01-25T02:18:17.686Z,3.74
2023-01-25T02:19:17.633Z,3.66
2023-01-25T02:20:17.631Z,3.63
2023-01-25T02:21:17.634Z,3.55
2023-01-25T02:22:18.667Z,3.71
2023-01-25T02:23:17.650Z,3.63
2023-01-25T02:24:17.965Z,3.66
2023-01-25T02:25:18.672Z,3.66
2023-01-25T02:26:17.651Z,3.73
2023-01-25T02:27:17.734Z,3.67
2023-01-25T02:28:17.686Z,3.78
2023-01-25T02:29:17.669Z,3.56
2023-01-25T02:30:17.682Z,3.7
2023-01-25T02:31:18.187Z,3.67
2023-01-25T02:32:20.986Z,3.71
2023-01-25T02:33:17.680Z,3.74
2023-01-25T02:34:17.686Z,3.64
2023-01-25T02:35:17.655Z,3.71
2023-01-25T02:36:20.398Z,3.73
2023-01-25T02:37:17.663Z,3.7
2023-01-25T02:38:17.694Z,3.71
2023-01-25T02:39:19.288Z,3.59
2023-01-25T02:40:17.699Z,3.67
2023-01-25T02:41:17.690Z,3.55
2023-01-25T02:42:17.703Z,3.63
2023-01-25T02:43:20.482Z,3.64
2023-01-25T02:44:17.711Z,3.68
2023-01-25T02:45:17.689Z,3.56
2023-01-25T02:46:17.908Z,3.63
2023-01-25T02:47:17.660Z,3.53
2023-01-25T02:48:21.307Z,3.58
2023-01-25T02:49:17.701Z,3.56
2023-01-25T02:50:19.827Z,3.64
2023-01-25T02:51:17.713Z,3.5
2023-01-25T02:52:17.688Z,3.58
2023-01-25T02:53:17.717Z,3.52
2023-01-25T02:54:20.867Z,3.53
2023-01-25T02:55:17.693Z,3.45
2023-01-25T02:56:17.715Z,3.58
2023-01-25T02:57:17.699Z,3.45
2023-01-25T02:58:18.770Z,3.43
2023-01-25T02:59:20.792Z,3.33
2023-01-25T03:00:17.780Z,3.31
2023-01-25T03:01:17.843Z,3.18
2023-01-25T03:02:17.815Z,3.37
2023-01-25T03:03:17.767Z,3.45
2023-01-25T03:04:17.739Z,3.34
2023-01-25T03:05:20.776Z,3.46
2023-01-25T03:06:17.723Z,3.36
2023-01-25T03:07:17.727Z,3.48
2023-01-25T03:08:17.741Z,3.43
2023-01-25T03:09:17.754Z,3.5
2023-01-25T03:10:20.583Z,3.49
2023-01-25T03:11:17.700Z,3.55
2023-01-25T03:12:17.790Z,3.48
2023-01-25T03:13:17.771Z,3.49
2023-01-25T03:14:17.754Z,3.34
2023-01-25T03:15:17.755Z,3.34
2023-01-25T03:16:18.001Z,3.29
2023-01-25T03:17:17.734Z,3.4
2023-01-25T03:18:17.766Z,3.43
2023-01-25T03:19:17.804Z,3.36
2023-01-25T03:20:17.765Z,3.31
2023-01-25T03:21:20.580Z,3.43
2023-01-25T03:22:17.734Z,3.43
2023-01-25T03:23:17.758Z,3.36
2023-01-25T03:24:17.985Z,3.48
2023-01-25T03:25:17.900Z,3.48
2023-01-25T03:26:17.754Z,3.52
2023-01-25T03:27:17.747Z,3.52
2023-01-25T03:28:17.807Z,3.43
2023-01-25T03:29:17.731Z,3.4
2023-01-25T03:30:17.847Z,3.43
2023-01-25T03:31:18.032Z,3.41
2023-01-25T03:32:20.965Z,3.36
2023-01-25T03:33:17.773Z,3.45
2023-01-25T03:34:17.759Z,3.5
2023-01-25T03:35:17.744Z,3.46
2023-01-25T03:36:18.015Z,3.5
2023-01-25T03:37:17.902Z,3.49
2023-01-25T03:38:17.783Z,3.55
2023-01-25T03:39:17.768Z,3.61
2023-01-25T03:40:17.792Z,3.52
2023-01-25T03:41:17.848Z,3.56
2023-01-25T03:42:17.898Z,3.53
2023-01-25T03:43:21.074Z,3.53
2023-01-25T03:44:17.809Z,3.52
2023-01-25T03:45:18.006Z,3.55
2023-01-25T03:46:17.775Z,3.59
2023-01-25T03:47:18.081Z,3.56
2023-01-25T03:48:17.774Z,3.53
2023-01-25T03:49:17.800Z,3.61
2023-01-25T03:50:17.792Z,3.58
2023-01-25T03:51:17.799Z,3.49
2023-01-25T03:52:20.261Z,3.55
2023-01-25T03:53:17.776Z,3.59
2023-01-25T03:54:21.014Z,3.55
2023-01-25T03:55:17.823Z,3.52
2023-01-25T03:56:20.661Z,3.61
2023-01-25T03:57:17.791Z,3.5
2023-01-25T03:58:17.948Z,3.46
2023-01-25T03:59:17.795Z,3.48
2023-01-25T04:00:17.831Z,3.56
2023-01-25T04:01:18.077Z,3.53
2023-01-25T04:02:18.023Z,3.58
2023-01-25T04:03:17.793Z,3.56
2023-01-25T04:04:17.792Z,3.53
2023-01-25T04:05:20.654Z,3.48
2023-01-25T04:06:17.924Z,3.59
2023-01-25T04:07:17.805Z,3.43
2023-01-25T04:08:17.880Z,3.45
2023-01-25T04:09:17.824Z,3.43
2023-01-25T04:10:17.818Z,3.52
2023-01-25T04:11:17.847Z,3.46
2023-01-25T04:12:17.830Z,3.55
2023-01-25T04:13:17.811Z,3.52
2023-01-25T04:14:23.257Z,3.52
2023-01-25T04:15:17.822Z,3.58
2023-01-25T04:16:20.824Z,3.52
2023-01-25T04:17:17.823Z,3.46
2023-01-25T04:18:17.807Z,3.45
2023-01-25T04:19:17.859Z,3.46
2023-01-25T04:20:17.810Z,3.45
2023-01-25T04:21:17.882Z,3.49
2023-01-25T04:22:17.884Z,3.5
2023-01-25T04:23:17.828Z,3.31
2023-01-25T04:24:18.087Z,3.41
2023-01-25T04:25:17.838Z,3.4
2023-01-25T04:26:17.821Z,3.37
2023-01-25T04:27:20.817Z,3.45
2023-01-25T04:28:17.887Z,3.27
2023-01-25T04:29:18.599Z,3.4
2023-01-25T04:30:17.834Z,3.36
2023-01-25T04:31:18.307Z,3.33
2023-01-25T04:32:18.394Z,3.41
2023-01-25T04:33:17.836Z,3.4
2023-01-25T04:34:17.853Z,3.27
2023-01-25T04:35:17.899Z,3.26
2023-01-25T04:36:17.844Z,3.43
2023-01-25T04:37:17.894Z,3.36
2023-01-25T04:38:17.858Z,3.36
2023-01-25T04:39:17.850Z,3.45
2023-01-25T04:40:17.889Z,3.3
2023-01-25T04:41:17.865Z,3.49
2023-01-25T04:42:17.913Z,3.37
2023-01-25T04:43:20.801Z,3.36
2023-01-25T04:44:17.864Z,3.45
2023-01-25T04:45:17.894Z,3.3
2023-01-25T04:46:18.016Z,3.36
2023-01-25T04:47:17.849Z,3.31
2023-01-25T04:48:17.949Z,3.36
2023-01-25T04:49:17.921Z,3.34
2023-01-25T04:50:17.888Z,3.24
2023-01-25T04:51:17.869Z,3.27
2023-01-25T04:52:17.914Z,3.31
2023-01-25T04:53:17.923Z,3.27
2023-01-25T04:54:17.890Z,3.29
2023-01-25T04:55:17.896Z,3.34
2023-01-25T04:56:17.892Z,3.48
2023-01-25T04:57:17.917Z,3.34
2023-01-25T04:58:18.014Z,3.26
2023-01-25T04:59:20.699Z,3.21
2023-01-25T05:00:17.891Z,3.31
2023-01-25T05:01:18.110Z,3.33
2023-01-25T05:02:18.099Z,3.34
2023-01-25T05:03:17.929Z,3.22
2023-01-25T05:04:20.713Z,3.26
2023-01-25T05:05:17.941Z,3.37
2023-01-25T05:06:17.927Z,3.27
2023-01-25T05:07:17.971Z,3.21
2023-01-25T05:08:17.901Z,3.27
2023-01-25T05:09:20.690Z,3.37
2023-01-25T05:10:20.900Z,3.36
2023-01-25T05:11:17.920Z,3.34
2023-01-25T05:12:17.947Z,3.41
2023-01-25T05:13:20.904Z,3.31
2023-01-25T05:14:17.929Z,3.45
2023-01-25T05:15:20.737Z,3.29
2023-01-25T05:16:18.064Z,3.4
2023-01-25T05:17:17.924Z,3.4
2023-01-25T05:18:17.912Z,3.36
2023-01-25T05:19:17.952Z,3.41
2023-01-25T05:20:17.952Z,3.49
2023-01-25T05:21:20.681Z,3.45
2023-01-25T05:22:18.016Z,3.29
2023-01-25T05:23:17.916Z,3.4
2023-01-25T05:24:18.158Z,3.36
2023-01-25T05:25:18.049Z,3.45
2023-01-25T05:26:20.757Z,3.5
2023-01-25T05:27:18.135Z,3.49
2023-01-25T05:28:17.799Z,3.46
2023-01-25T05:29:17.968Z,3.43
2023-01-25T05:30:17.947Z,3.37
2023-01-25T05:31:18.285Z,3.4
2023-01-25T05:32:20.674Z,3.55
2023-01-25T05:33:17.959Z,3.45
2023-01-25T05:34:18.011Z,3.48
2023-01-25T05:35:17.949Z,3.48
2023-01-25T05:36:17.966Z,3.52
2023-01-25T05:37:21.212Z,3.48
2023-01-25T05:38:17.976Z,3.34
2023-01-25T05:39:17.981Z,3.41
2023-01-25T05:40:17.967Z,3.3
2023-01-25T05:41:17.992Z,3.24
2023-01-25T05:42:17.980Z,3.27
2023-01-25T05:43:17.956Z,3.27
2023-01-25T05:44:18.030Z,3.29
2023-01-25T05:45:17.964Z,3.31
2023-01-25T05:46:18.127Z,3.4
2023-01-25T05:47:17.974Z,3.36
2023-01-25T05:48:20.766Z,3.33
2023-01-25T05:49:19.028Z,3.19
2023-01-25T05:50:17.792Z,3.21
2023-01-25T05:51:17.971Z,3.26
2023-01-25T05:52:17.988Z,3.08
2023-01-25T05:53:17.982Z,3.09
2023-01-25T05:54:17.989Z,3.01
2023-01-25T05:55:20.155Z,3.11
2023-01-25T05:56:17.973Z,3.03
2023-01-25T05:57:18.029Z,3.13
2023-01-25T05:58:17.981Z,3.06
2023-01-25T05:59:21.276Z,3.18
2023-01-25T06:00:18.004Z,3.09
2023-01-25T06:01:17.849Z,3.13
2023-01-25T06:02:18.324Z,3.16
2023-01-25T06:03:22.864Z,3.08
2023-01-25T06:04:18.025Z,3.09
2023-01-25T06:05:19.015Z,3.11
2023-01-25T06:06:18.074Z,3.21
2023-01-25T06:07:18.154Z,3.06
2023-01-25T06:08:18.029Z,3.11
2023-01-25T06:09:18.079Z,3.01
2023-01-25T06:10:20.841Z,3.01
2023-01-25T06:11:18.012Z,3.01
2023-01-25T06:12:18.058Z,3.05
2023-01-25T06:13:18.071Z,3.06
2023-01-25T06:14:18.070Z,3.03
2023-01-25T06:15:18.044Z,2.97
2023-01-25T06:16:18.232Z,3.03
2023-01-25T06:17:18.026Z,3.11
2023-01-25T06:18:17.994Z,3.12
2023-01-25T06:19:18.262Z,3.13
2023-01-25T06:20:17.905Z,3.19
2023-01-25T06:21:21.028Z,3.19
2023-01-25T06:22:18.051Z,3.24
2023-01-25T06:23:18.018Z,3.15
2023-01-25T06:24:18.217Z,3.12
2023-01-25T06:25:18.160Z,3.18
2023-01-25T06:26:18.050Z,3.22
2023-01-25T06:27:18.195Z,3.18
2023-01-25T06:28:18.027Z,3.16
2023-01-25T06:29:18.120Z,3.15
2023-01-25T06:30:18.037Z,3.19
2023-01-25T06:31:18.295Z,3.16
2023-01-25T06:32:21.322Z,3.11
2023-01-25T06:33:18.105Z,3
2023-01-25T06:34:18.124Z,3.06
2023-01-25T06:35:18.099Z,3.06
2023-01-25T06:36:18.112Z,3.12
2023-01-25T06:37:17.953Z,3.15
2023-01-25T06:38:18.073Z,3.19
2023-01-25T06:39:20.825Z,3.15
2023-01-25T06:40:18.151Z,3.08
2023-01-25T06:41:18.043Z,3.22
2023-01-25T06:42:18.095Z,3.22
2023-01-25T06:43:20.839Z,3.19
2023-01-25T06:44:18.075Z,3.22
2023-01-25T06:45:17.955Z,3.15
2023-01-25T06:46:18.209Z,3.09
2023-01-25T06:47:18.093Z,3.12
2023-01-25T06:48:18.261Z,3.08
2023-01-25T06:49:18.126Z,3.18
2023-01-25T06:50:18.059Z,3.08
2023-01-25T06:51:17.920Z,3.09
2023-01-25T06:52:18.108Z,2.97
2023-01-25T06:53:18.002Z,3.09
2023-01-25T06:54:18.713Z,3.03
2023-01-25T06:55:18.166Z,3.06
2023-01-25T06:56:18.081Z,3.12
2023-01-25T06:57:18.060Z,3.05
2023-01-25T06:58:18.127Z,3.06
2023-01-25T06:59:18.171Z,3.06
2023-01-25T07:00:18.147Z,3.06
2023-01-25T07:01:18.354Z,3.05
2023-01-25T07:02:18.102Z,2.98
2023-01-25T07:03:18.254Z,2.95
2023-01-25T07:04:18.138Z,2.98
2023-01-25T07:05:18.171Z,3.01
2023-01-25T07:06:18.141Z,3.05
2023-01-25T07:07:18.144Z,3
2023-01-25T07:08:18.084Z,3.08
2023-01-25T07:09:18.147Z,3.05
2023-01-25T07:10:20.893Z,3.03
2023-01-25T07:11:18.265Z,3.13
2023-01-25T07:12:18.090Z,3.06
2023-01-25T07:13:18.107Z,3.09
2023-01-25T07:14:18.158Z,3.11
2023-01-25T07:15:18.130Z,3.05
2023-01-25T07:16:21.033Z,3.08
2023-01-25T07:17:17.976Z,3.16
2023-01-25T07:18:21.368Z,3.05
2023-01-25T07:19:18.173Z,3.19
2023-01-25T07:20:18.134Z,3.19
2023-01-25T07:21:18.225Z,3.19
2023-01-25T07:22:18.337Z,3.21
2023-01-25T07:23:18.127Z,3.18
2023-01-25T07:24:18.355Z,3.13
2023-01-25T07:25:18.143Z,3.27
2023-01-25T07:26:20.985Z,3.22
2023-01-25T07:27:18.124Z,3.19
2023-01-25T07:28:18.133Z,3.22
2023-01-25T07:29:18.197Z,3.22
2023-01-25T07:30:18.131Z,3.12
2023-01-25T07:31:18.478Z,3.26
2023-01-25T07:32:18.169Z,3.29
2023-01-25T07:33:18.229Z,3.29
2023-01-25T07:34:18.215Z,3.24
2023-01-25T07:35:18.130Z,3.18
2023-01-25T07:36:18.251Z,3.21
2023-01-25T07:37:27.276Z,3.27
2023-01-25T07:38:19.385Z,3.24
2023-01-25T07:39:18.192Z,3.19
2023-01-25T07:40:18.144Z,3.18
2023-01-25T07:41:18.315Z,3.12
2023-01-25T07:42:21.257Z,3.22
2023-01-25T07:43:18.195Z,3.19
2023-01-25T07:44:18.184Z,3.15
2023-01-25T07:45:18.168Z,3.19
2023-01-25T07:46:18.210Z,3.22
2023-01-25T07:47:18.154Z,3.16
2023-01-25T07:48:21.114Z,3.21
2023-01-25T07:49:18.408Z,3.29
2023-01-25T07:50:18.198Z,3.31
2023-01-25T07:51:18.199Z,3.24
2023-01-25T07:52:18.199Z,3.27
2023-01-25T07:53:21.063Z,3.19
2023-01-25T07:54:18.221Z,3.22
2023-01-25T07:55:18.182Z,3.19
2023-01-25T07:56:18.208Z,3.18
2023-01-25T07:57:18.173Z,3.19
2023-01-25T07:58:18.208Z,3.21
2023-01-25T07:59:21.020Z,3.16
2023-01-25T08:00:18.220Z,3.13
2023-01-25T08:01:18.193Z,3.18
2023-01-25T08:02:19.253Z,3.24
2023-01-25T08:03:18.314Z,3.21
2023-01-25T08:04:21.057Z,3.12
2023-01-25T08:05:18.207Z,3.15
2023-01-25T08:06:18.376Z,3.12
2023-01-25T08:07:18.193Z,3.09
2023-01-25T08:08:18.334Z,3.15
2023-01-25T08:09:18.241Z,3.24
2023-01-25T08:10:21.240Z,3.26
2023-01-25T08:11:18.203Z,3.12
2023-01-25T08:12:18.199Z,3.29
2023-01-25T08:13:18.198Z,3.21
2023-01-25T08:14:18.255Z,3.09
2023-01-25T08:15:21.050Z,3.09
2023-01-25T08:16:18.199Z,3.16
2023-01-25T08:17:18.209Z,3.13
2023-01-25T08:18:18.245Z,3.27
2023-01-25T08:19:18.222Z,3.19
2023-01-25T08:20:18.259Z,3.26
2023-01-25T08:21:18.268Z,3.27
2023-01-25T08:22:18.252Z,3.24
2023-01-25T08:23:18.229Z,3.22
2023-01-25T08:24:24.639Z,3.3
2023-01-25T08:25:18.234Z,3.24
2023-01-25T08:26:21.284Z,3.27
2023-01-25T08:27:18.216Z,3.3
2023-01-25T08:28:18.286Z,3.33
2023-01-25T08:29:18.235Z,3.27
2023-01-25T08:30:18.372Z,3.22
2023-01-25T08:31:18.233Z,3.31
2023-01-25T08:32:18.256Z,3.26
2023-01-25T08:33:18.234Z,3.11
2023-01-25T08:34:18.223Z,3.27
2023-01-25T08:35:18.257Z,3.15
2023-01-25T08:36:18.342Z,3.08
2023-01-25T08:37:21.533Z,3
2023-01-25T08:38:18.293Z,3.08
2023-01-25T08:39:18.245Z,3.03
2023-01-25T08:40:18.266Z,3.09
2023-01-25T08:41:18.402Z,2.95
2023-01-25T08:42:18.248Z,3.01
2023-01-25T08:43:18.264Z,3.06
2023-01-25T08:44:18.339Z,3
2023-01-25T08:45:18.264Z,3.03
2023-01-25T08:46:18.642Z,3.09
2023-01-25T08:47:18.267Z,3
2023-01-25T08:48:21.054Z,2.98
2023-01-25T08:49:18.254Z,3.03
2023-01-25T08:50:18.273Z,2.91
2023-01-25T08:51:18.292Z,2.88
2023-01-25T08:52:18.567Z,2.83
2023-01-25T08:53:18.301Z,2.91
2023-01-25T08:54:18.274Z,2.94
2023-01-25T08:55:18.511Z,2.97
2023-01-25T08:56:18.296Z,2.94
2023-01-25T08:57:18.265Z,2.97
2023-01-25T08:58:18.293Z,2.98
2023-01-25T08:59:21.290Z,2.97
2023-01-25T09:00:18.281Z,2.97
2023-01-25T09:01:18.304Z,2.95
2023-01-25T09:02:18.301Z,3.01
2023-01-25T09:03:18.565Z,3.03
2023-01-25T09:04:18.291Z,3.01
2023-01-25T09:05:18.328Z,3.09
2023-01-25T09:06:18.413Z,3.19
2023-01-25T09:07:18.317Z,3.06
2023-01-25T09:08:18.432Z,3.08
2023-01-25T09:09:18.319Z,3.03
2023-01-25T09:10:21.344Z,3.05
2023-01-25T09:11:18.319Z,3.08
2023-01-25T09:12:18.325Z,3.05
2023-01-25T09:13:18.324Z,3.08
2023-01-25T09:14:18.417Z,3.05
2023-01-25T09:15:18.369Z,3.03
2023-01-25T09:16:18.329Z,2.98
2023-01-25T09:17:18.316Z,2.93
2023-01-25T09:18:18.371Z,2.94
2023-01-25T09:19:18.376Z,2.93
2023-01-25T09:20:18.403Z,2.91
2023-01-25T09:21:21.135Z,2.94
2023-01-25T09:22:18.351Z,2.98
2023-01-25T09:23:18.334Z,2.97
2023-01-25T09:24:18.485Z,2.94
2023-01-25T09:25:18.463Z,2.9
2023-01-25T09:26:18.290Z,2.91
2023-01-25T09:27:18.340Z,2.91
2023-01-25T09:28:18.344Z,2.91
2023-01-25T09:29:18.345Z,2.83
2023-01-25T09:30:41.035Z,2.94
2023-01-25T09:31:35.760Z,2.88
2023-01-25T09:32:38.737Z,2.85
2023-01-25T09:33:35.279Z,3.06
2023-01-25T09:34:35.207Z,3
2023-01-25T09:35:35.307Z,2.94
2023-01-25T09:36:35.245Z,3.01
2023-01-25T09:37:35.624Z,3.06
2023-01-25T09:38:38.019Z,3.03
2023-01-25T09:39:35.287Z,3.05
2023-01-25T09:40:35.267Z,3.08
2023-01-25T09:41:35.418Z,3.08
2023-01-25T09:42:35.237Z,3.11
2023-01-25T09:43:35.253Z,3
2023-01-25T09:44:35.215Z,2.98
2023-01-25T09:45:35.267Z,2.9
2023-01-25T09:46:35.469Z,2.98
2023-01-25T09:47:35.255Z,3
2023-01-25T09:48:35.274Z,3.06
2023-01-25T09:49:38.039Z,3.05
2023-01-25T09:50:35.289Z,3.05
2023-01-25T09:51:35.217Z,3.06
2023-01-25T09:52:35.260Z,3.08
2023-01-25T09:53:35.247Z,3.05
2023-01-25T09:54:49.245Z,3.18
2023-01-25T09:55:35.337Z,3.08
2023-01-25T09:56:35.256Z,2.98
2023-01-25T09:57:35.232Z,3.06
2023-01-25T09:58:35.282Z,2.93
2023-01-25T09:59:35.265Z,3.01
2023-01-25T10:00:38.187Z,2.98
2023-01-25T10:01:43.708Z,3.03
2023-01-25T10:02:35.663Z,3.03
2023-01-25T10:03:35.261Z,2.97
2023-01-25T10:04:38.319Z,2.95
2023-01-25T10:05:35.323Z,2.97
2023-01-25T10:06:35.275Z,3.11
2023-01-25T10:07:35.259Z,3.13
2023-01-25T10:08:35.275Z,3.09
2023-01-25T10:09:35.286Z,3.18
2023-01-25T10:10:35.308Z,3.16
2023-01-25T10:11:41.236Z,3.12
2023-01-25T10:12:35.245Z,3.12
2023-01-25T10:13:35.308Z,3.11
2023-01-25T10:14:35.243Z,3.18
2023-01-25T10:15:35.309Z,3.18
2023-01-25T10:16:38.462Z,3.19
2023-01-25T10:17:35.281Z,3.21
2023-01-25T10:18:35.304Z,3.26
2023-01-25T10:19:35.306Z,3.16
2023-01-25T10:20:35.398Z,3.22
2023-01-25T10:21:35.319Z,3.22
2023-01-25T10:22:38.149Z,3.16
2023-01-25T10:23:35.265Z,3.26
2023-01-25T10:24:35.307Z,3.18
2023-01-25T10:25:35.325Z,3.21
2023-01-25T10:26:35.322Z,3.21
2023-01-25T10:27:38.343Z,3.13
2023-01-25T10:28:35.294Z,3.19
2023-01-25T10:29:35.487Z,3.24
2023-01-25T10:30:35.432Z,3.18
2023-01-25T10:31:35.719Z,3.26
2023-01-25T10:32:39.727Z,3.11
2023-01-25T10:33:40.344Z,3.18
2023-01-25T10:34:50.675Z,3.26
2023-01-25T10:35:47.084Z,3.43
2023-01-25T10:36:35.358Z,3.18
2023-01-25T10:37:35.374Z,3.26
2023-01-25T10:38:38.101Z,3.15
2023-01-25T10:39:35.358Z,3.19
2023-01-25T10:40:35.368Z,3.18
2023-01-25T10:41:35.337Z,3.09
2023-01-25T10:42:35.526Z,3.21
2023-01-25T10:43:35.396Z,3.19
2023-01-25T10:44:38.479Z,3.19
2023-01-25T10:45:35.405Z,3.22
2023-01-25T10:46:35.486Z,3.29
2023-01-25T10:47:35.298Z,3.12
2023-01-25T10:48:35.379Z,3.16
2023-01-25T10:49:38.218Z,3.16
2023-01-25T10:50:35.380Z,3.29
2023-01-25T10:51:35.608Z,3.24
2023-01-25T10:52:35.345Z,3.26
2023-01-25T10:53:35.383Z,3.22
2023-01-25T10:54:35.479Z,3.36
2023-01-25T10:55:35.326Z,3.34
2023-01-25T10:56:35.337Z,3.31
2023-01-25T10:57:35.358Z,3.22
2023-01-25T10:58:35.386Z,3.22
2023-01-25T10:59:35.337Z,3.31
2023-01-25T11:00:38.472Z,3.33
2023-01-25T11:01:35.439Z,3.34
2023-01-25T11:02:35.479Z,3.37
2023-01-25T11:03:35.353Z,3.37
2023-01-25T11:04:35.445Z,3.33
2023-01-25T11:05:35.431Z,3.22
2023-01-25T11:06:35.351Z,3.29
2023-01-25T11:07:35.384Z,3.27
2023-01-25T11:08:35.431Z,3.24
2023-01-25T11:09:35.428Z,3.36
2023-01-25T11:10:35.400Z,3.34
2023-01-25T11:11:40.546Z,3.31
2023-01-25T11:12:35.358Z,3.33
2023-01-25T11:13:35.400Z,3.37
2023-01-25T11:14:35.440Z,3.46
2023-01-25T11:15:35.508Z,3.36
2023-01-25T11:16:35.418Z,3.16
2023-01-25T11:17:35.582Z,3.26
2023-01-25T11:18:35.399Z,3.29
2023-01-25T11:19:35.376Z,3.29
2023-01-25T11:20:35.758Z,3.22
2023-01-25T11:21:35.398Z,3.22
2023-01-25T11:22:35.369Z,3.12
2023-01-25T11:23:35.372Z,3.21
2023-01-25T11:24:35.428Z,3.19
2023-01-25T11:25:35.479Z,3.33
2023-01-25T11:26:35.436Z,3.37
2023-01-25T11:27:35.381Z,3.49
2023-01-25T11:28:35.419Z,3.22
2023-01-25T11:29:35.374Z,3.19
2023-01-25T11:30:35.553Z,3.18
2023-01-25T11:31:35.762Z,3.26
2023-01-25T11:32:35.381Z,3.21
2023-01-25T11:33:35.375Z,3.22
2023-01-25T11:34:35.397Z,3.31
2023-01-25T11:35:35.424Z,3.27
2023-01-25T11:36:35.461Z,3.24
2023-01-25T11:37:35.396Z,3.3
2023-01-25T11:38:35.391Z,3.41
2023-01-25T11:39:35.405Z,3.33
2023-01-25T11:40:35.451Z,3.33
2023-01-25T11:41:37.413Z,3.34
2023-01-25T11:42:35.649Z,3.37
2023-01-25T11:43:42.884Z,3.49
2023-01-25T11:44:35.394Z,3.49
2023-01-25T11:45:35.428Z,3.48
2023-01-25T11:46:35.648Z,3.48
2023-01-25T11:47:35.455Z,3.43
2023-01-25T11:48:35.428Z,3.48
2023-01-25T11:49:35.435Z,3.49
2023-01-25T11:50:35.443Z,3.45
2023-01-25T11:51:35.501Z,3.48
2023-01-25T11:52:35.460Z,3.5
2023-01-25T11:53:35.589Z,3.41
2023-01-25T11:54:38.250Z,3.3
2023-01-25T11:55:35.461Z,3.4
2023-01-25T11:57:35.438Z,3.48
2023-01-25T11:58:35.493Z,3.46
2023-01-25T11:59:38.201Z,3.52
2023-01-25T12:00:35.495Z,3.52
2023-01-25T12:01:35.442Z,3.48
2023-01-25T12:02:35.614Z,3.45
2023-01-25T12:03:35.771Z,3.5
2023-01-25T12:04:35.448Z,3.55
2023-01-25T12:05:38.369Z,3.52
2023-01-25T12:06:35.504Z,3.48
2023-01-25T12:07:35.439Z,3.52
2023-01-25T12:08:37.547Z,3.52
2023-01-25T12:09:35.463Z,3.45
2023-01-25T12:10:35.492Z,3.52
2023-01-25T12:11:35.448Z,3.55
2023-01-25T12:12:35.492Z,3.58
2023-01-25T12:13:35.488Z,3.48
2023-01-25T12:14:35.464Z,3.55
2023-01-25T12:15:35.448Z,3.49
2023-01-25T12:16:38.566Z,3.58
2023-01-25T12:17:35.491Z,3.49
2023-01-25T12:18:35.512Z,3.52
2023-01-25T12:19:35.481Z,3.49
2023-01-25T12:20:35.466Z,3.52
2023-01-25T12:21:39.097Z,3.58
2023-01-25T12:22:35.472Z,3.56
2023-01-25T12:23:35.685Z,3.59
2023-01-25T12:24:35.477Z,3.56
2023-01-25T12:25:35.468Z,3.55
2023-01-25T12:26:35.540Z,3.61
2023-01-25T12:27:38.306Z,3.53
2023-01-25T12:28:35.515Z,3.58
2023-01-25T12:29:35.366Z,3.61
2023-01-25T12:30:35.647Z,3.59
2023-01-25T12:31:35.660Z,3.55
2023-01-25T12:32:35.472Z,3.56
2023-01-25T12:33:35.507Z,3.56
2023-01-25T12:34:35.479Z,3.61
2023-01-25T12:35:35.516Z,3.64
2023-01-25T12:36:35.952Z,3.67
2023-01-25T12:37:35.480Z,3.66
2023-01-25T12:38:36.540Z,3.63
2023-01-25T12:39:35.520Z,3.56
2023-01-25T12:40:35.493Z,3.49
2023-01-25T12:41:35.549Z,3.52
2023-01-25T12:42:35.505Z,3.45
2023-01-25T12:43:38.536Z,3.43
2023-01-25T12:44:35.540Z,3.5
2023-01-25T12:45:35.515Z,3.49
2023-01-25T12:46:35.627Z,3.52
2023-01-25T12:47:35.563Z,3.41
2023-01-25T12:48:35.518Z,3.37
2023-01-25T12:49:38.372Z,3.33
2023-01-25T12:50:35.562Z,3.46
2023-01-25T12:51:35.522Z,3.46
2023-01-25T12:52:35.517Z,3.45
2023-01-25T12:53:35.527Z,3.53
2023-01-25T12:54:38.591Z,3.55
2023-01-25T12:55:35.505Z,3.52
2023-01-25T12:56:35.533Z,3.53
2023-01-25T12:57:35.524Z,3.55
2023-01-25T12:58:42.574Z,3.56
2023-01-25T12:59:35.535Z,3.59
2023-01-25T13:00:40.443Z,3.56
2023-01-25T13:01:35.676Z,3.52
2023-01-25T13:02:35.541Z,3.49
2023-01-25T13:03:35.516Z,3.49
2023-01-25T13:04:35.511Z,3.48
2023-01-25T13:05:38.408Z,3.34
2023-01-25T13:06:35.544Z,3.29
2023-01-25T13:07:35.557Z,3.33
2023-01-25T13:08:36.962Z,3.52
2023-01-25T13:09:35.621Z,3.49
2023-01-25T13:10:35.537Z,3.48
2023-01-25T13:11:38.303Z,3.52
2023-01-25T13:12:35.572Z,3.48
2023-01-25T13:13:35.572Z,3.41
2023-01-25T13:14:35.554Z,3.33
2023-01-25T13:15:35.575Z,3.48
2023-01-25T13:16:38.736Z,3.33
2023-01-25T13:17:38.810Z,3.4
2023-01-25T13:18:35.613Z,3.43
2023-01-25T13:19:35.556Z,3.33
2023-01-25T13:20:35.610Z,3.46
2023-01-25T13:21:35.588Z,3.5